createdAt,value
2023-01-18T00:01:05.292Z,1.03
2023-01-18T00:03:35.899Z,0.93
2023-01-18T00:06:04.474Z,1.14
2023-01-18T00:08:33.085Z,0.88
2023-01-18T00:11:10.939Z,1.03
2023-01-18T00:13:39.402Z,0.92
2023-01-18T00:16:21.365Z,0.99
2023-01-18T00:18:56.910Z,1.08
2023-01-18T00:21:25.159Z,1.19
2023-01-18T00:23:52.881Z,1.18
2023-01-18T00:26:19.576Z,1.22
2023-01-18T00:28:46.370Z,1.47
2023-01-18T00:31:19.336Z,1.23
2023-01-18T00:33:48.211Z,1.20
2023-01-18T00:36:16.027Z,1.51
2023-01-18T00:38:44.306Z,1.46
2023-01-18T00:41:11.135Z,1.47
2023-01-18T00:43:40.661Z,1.46
2023-01-18T00:46:10.792Z,1.43
2023-01-18T00:48:41.359Z,1.39
2023-01-18T00:51:11.364Z,1.47
2023-01-18T00:53:38.730Z,1.43
2023-01-18T00:56:07.274Z,1.48
2023-01-18T00:58:34.051Z,1.52
2023-01-18T01:01:02.482Z,1.37
2023-01-18T01:03:29.378Z,1.48
2023-01-18T01:06:15.749Z,1.45
2023-01-18T01:08:50.235Z,1.42
2023-01-18T01:11:16.929Z,1.46
2023-01-18T01:14:02.018Z,1.46
2023-01-18T01:16:47.435Z,1.32
2023-01-18T01:19:32.757Z,1.32
2023-01-18T01:22:18.026Z,1.27
2023-01-18T01:25:03.075Z,1.30
2023-01-18T01:27:31.083Z,1.27
2023-01-18T01:30:01.337Z,1.24
2023-01-18T01:32:28.943Z,1.36
2023-01-18T01:34:56.547Z,1.26
2023-01-18T01:37:23.189Z,1.35
2023-01-18T01:39:49.975Z,1.28
2023-01-18T01:42:22.009Z,1.41
2023-01-18T01:44:52.065Z,1.29
2023-01-18T01:47:53.748Z,1.51
2023-01-18T01:50:39.429Z,1.40
2023-01-18T01:53:07.511Z,1.32
2023-01-18T01:55:41.134Z,1.29
2023-01-18T01:58:15.949Z,1.52
2023-01-18T02:00:44.669Z,1.35
2023-01-18T02:03:18.815Z,1.42
2023-01-18T02:05:51.475Z,1.35
2023-01-18T02:08:25.062Z,1.37
2023-01-18T02:10:52.744Z,1.47
2023-01-18T02:13:23.022Z,1.43
2023-01-18T02:15:57.711Z,1.38
2023-01-18T02:18:50.648Z,1.40
2023-01-18T02:21:28.340Z,1.39
2023-01-18T02:24:10.138Z,1.46
2023-01-18T02:26:51.854Z,1.36
2023-01-18T02:29:41.311Z,1.29
2023-01-18T02:32:14.336Z,1.30
2023-01-18T02:34:48.367Z,1.27
2023-01-18T02:37:47.121Z,1.23
2023-01-18T02:40:32.392Z,1.21
2023-01-18T02:43:21.735Z,1.26
2023-01-18T02:46:09.057Z,1.26
2023-01-18T02:48:43.796Z,1.13
2023-01-18T02:51:11.769Z,1.11
2023-01-18T02:53:42.887Z,1.23
2023-01-18T02:56:27.798Z,1.28
2023-01-18T02:59:10.162Z,1.24
2023-01-18T03:01:49.188Z,1.29
2023-01-18T03:04:26.649Z,1.17
2023-01-18T03:07:02.609Z,1.11
2023-01-18T03:09:31.198Z,1.08
2023-01-18T03:12:06.302Z,1.04
2023-01-18T03:14:53.306Z,1.18
2023-01-18T03:17:52.200Z,1.05
2023-01-18T03:20:25.824Z,0.97
2023-01-18T03:23:20.611Z,1.09
2023-01-18T03:25:50.725Z,1.09
2023-01-18T03:28:55.361Z,1.15
2023-01-18T03:31:52.360Z,1.27
2023-01-18T03:34:42.764Z,1.19
2023-01-18T03:37:14.720Z,1.17
2023-01-18T03:39:46.779Z,1.20
2023-01-18T03:42:20.113Z,1.27
2023-01-18T03:45:00.835Z,1.35
2023-01-18T03:47:28.523Z,1.32
2023-01-18T03:49:55.273Z,1.33
2023-01-18T03:52:45.305Z,1.43
2023-01-18T03:55:26.291Z,1.59
2023-01-18T03:58:06.242Z,1.52
2023-01-18T04:00:33.532Z,1.51
2023-01-18T04:03:01.700Z,1.45
2023-01-18T04:05:28.695Z,1.43
2023-01-18T04:07:55.492Z,1.50
2023-01-18T04:10:22.348Z,1.51
2023-01-18T04:12:49.217Z,1.47
2023-01-18T04:15:18.149Z,1.42
2023-01-18T04:17:44.899Z,1.38
2023-01-18T04:20:12.846Z,1.53
2023-01-18T04:22:39.682Z,1.51
2023-01-18T04:25:06.846Z,1.49
2023-01-18T04:27:33.582Z,1.38
2023-01-18T04:30:02.074Z,1.48
2023-01-18T04:32:29.147Z,1.28
2023-01-18T04:34:57.627Z,1.30
2023-01-18T04:37:30.424Z,1.34
2023-01-18T04:39:57.876Z,1.42
2023-01-18T04:42:26.304Z,1.43
2023-01-18T04:44:53.599Z,1.33
2023-01-18T04:47:20.311Z,1.48
2023-01-18T04:49:48.257Z,1.48
2023-01-18T04:52:19.038Z,1.63
2023-01-18T04:54:45.888Z,1.51
2023-01-18T04:57:13.211Z,1.46
2023-01-18T04:59:40.629Z,1.43
2023-01-18T05:02:07.324Z,1.48
2023-01-18T05:04:34.846Z,1.59
2023-01-18T05:07:02.317Z,1.53
2023-01-18T05:09:31.339Z,1.61
2023-01-18T05:11:58.871Z,1.49
2023-01-18T05:14:25.673Z,1.46
2023-01-18T05:16:53.387Z,1.41
2023-01-18T05:19:20.783Z,1.39
2023-01-18T05:21:49.145Z,1.44
2023-01-18T05:24:16.922Z,1.33
2023-01-18T05:26:43.645Z,1.49
2023-01-18T05:29:10.333Z,1.28
2023-01-18T05:31:37.892Z,1.37
2023-01-18T05:34:06.001Z,1.29
2023-01-18T05:36:33.741Z,1.40
2023-01-18T05:39:01.986Z,1.40
2023-01-18T05:41:30.056Z,1.39
2023-01-18T05:43:56.800Z,1.36
2023-01-18T05:46:23.798Z,1.28
2023-01-18T05:48:52.749Z,1.22
2023-01-18T05:51:19.418Z,1.25
2023-01-18T05:53:46.157Z,1.19
2023-01-18T05:56:13.541Z,1.18
2023-01-18T05:58:40.294Z,1.21
2023-01-18T06:01:08.760Z,0.96
2023-01-18T06:03:37.038Z,1.11
2023-01-18T06:06:04.130Z,1.11
2023-01-18T06:08:34.522Z,1.04
2023-01-18T06:11:04.207Z,0.97
2023-01-18T06:13:31.994Z,1.05
2023-01-18T06:16:01.807Z,1.05
2023-01-18T06:18:31.292Z,0.98
2023-01-18T06:21:01.513Z,1.30
2023-01-18T06:23:47.869Z,1.23
2023-01-18T06:26:14.612Z,1.10
2023-01-18T06:28:42.693Z,1.13
2023-01-18T06:31:10.518Z,1.15
2023-01-18T06:33:37.581Z,1.11
2023-01-18T06:36:06.985Z,1.25
2023-01-18T06:38:33.949Z,1.14
2023-01-18T06:41:04.332Z,1.11
2023-01-18T06:43:33.252Z,1.25
2023-01-18T06:46:00.156Z,1.21
2023-01-18T06:48:29.924Z,1.17
2023-01-18T06:50:58.306Z,1.21
2023-01-18T06:53:25.298Z,1.19
2023-01-18T06:55:57.179Z,1.18
2023-01-18T06:58:27.506Z,1.11
2023-01-18T07:01:00.038Z,1.11
2023-01-18T07:03:29.160Z,0.94
2023-01-18T07:06:01.684Z,0.89
2023-01-18T07:08:33.315Z,0.78
2023-01-18T07:11:05.667Z,0.71
2023-01-18T07:13:32.889Z,0.64
2023-01-18T07:16:01.941Z,0.73
2023-01-18T07:18:30.423Z,0.57
2023-01-18T07:21:00.583Z,0.57
2023-01-18T07:23:28.692Z,0.57
2023-01-18T07:26:09.390Z,0.61
2023-01-18T07:28:36.520Z,0.80
2023-01-18T07:31:05.881Z,0.75
2023-01-18T07:33:32.744Z,0.83
2023-01-18T07:36:02.583Z,0.70
2023-01-18T07:38:30.304Z,0.76
2023-01-18T07:41:05.668Z,0.96
2023-01-18T07:43:33.414Z,0.94
2023-01-18T07:46:01.954Z,1.00
2023-01-18T07:48:28.823Z,0.91
2023-01-18T07:51:04.248Z,0.85
2023-01-18T07:53:33.472Z,0.89
2023-01-18T07:56:02.326Z,0.70
2023-01-18T07:58:30.102Z,0.72
2023-01-18T08:01:03.412Z,0.59
2023-01-18T08:03:30.167Z,0.53
2023-01-18T08:06:01.811Z,0.36
2023-01-18T08:08:31.704Z,0.36
2023-01-18T08:11:00.603Z,0.27
2023-01-18T08:13:34.902Z,0.24
2023-01-18T08:16:05.621Z,0.32
2023-01-18T08:18:33.241Z,0.25
2023-01-18T08:21:01.221Z,0.29
2023-01-18T08:23:28.055Z,0.28
2023-01-18T08:25:55.479Z,0.20
2023-01-18T08:28:22.634Z,0.18
2023-01-18T08:30:49.849Z,0.18
2023-01-18T08:33:16.740Z,0.23
2023-01-18T08:35:47.732Z,0.24
2023-01-18T08:38:15.879Z,0.14
2023-01-18T08:40:42.864Z,0.19
2023-01-18T08:43:11.717Z,0.27
2023-01-18T08:45:39.765Z,0.32
2023-01-18T08:48:09.595Z,0.30
2023-01-18T08:50:36.756Z,0.38
2023-01-18T08:53:04.306Z,0.33
2023-01-18T08:55:31.623Z,0.50
2023-01-18T08:57:59.054Z,0.48
2023-01-18T09:00:28.556Z,0.58
2023-01-18T09:02:56.218Z,0.54
2023-01-18T09:05:24.753Z,0.62
2023-01-18T09:07:55.790Z,0.71
2023-01-18T09:10:23.472Z,0.72
2023-01-18T09:12:52.799Z,0.82
2023-01-18T09:15:20.537Z,0.70
2023-01-18T09:17:47.218Z,0.73
2023-01-18T09:20:13.920Z,0.77
2023-01-18T09:22:42.778Z,0.96
2023-01-18T09:25:10.592Z,0.76
2023-01-18T09:27:37.559Z,0.86
2023-01-18T09:30:06.069Z,0.88
2023-01-18T09:32:32.731Z,1.02
2023-01-18T09:34:59.448Z,0.90
2023-01-18T09:37:26.252Z,0.95
2023-01-18T09:39:53.023Z,1.02
2023-01-18T09:42:22.715Z,1.06
2023-01-18T09:44:52.895Z,1.17
2023-01-18T09:47:36.824Z,1.21
2023-01-18T09:50:15.138Z,1.26
2023-01-18T09:52:52.307Z,1.37
2023-01-18T09:55:22.518Z,1.46
2023-01-18T09:58:08.653Z,1.54
2023-01-18T10:00:37.516Z,1.47
2023-01-18T10:03:12.928Z,1.35
2023-01-18T10:05:51.753Z,1.63
2023-01-18T10:08:25.327Z,1.45
2023-01-18T10:11:09.719Z,1.23
2023-01-18T10:13:51.954Z,1.51
2023-01-18T10:16:20.227Z,1.52
2023-01-18T10:18:53.498Z,1.38
2023-01-18T10:21:30.792Z,1.47
2023-01-18T10:24:04.328Z,1.35
2023-01-18T10:26:32.220Z,1.51
2023-01-18T10:29:12.863Z,1.53
2023-01-18T10:32:03.574Z,1.58
2023-01-18T10:34:36.297Z,1.76
2023-01-18T10:37:14.511Z,1.62
2023-01-18T10:39:48.017Z,1.74
2023-01-18T10:42:22.758Z,1.81
2023-01-18T10:44:49.869Z,1.76
2023-01-18T10:47:19.605Z,1.78
2023-01-18T10:49:48.509Z,1.65
2023-01-18T10:52:27.990Z,1.78
2023-01-18T10:54:56.764Z,1.66
2023-01-18T10:57:28.675Z,1.54
2023-01-18T10:59:56.880Z,1.70
2023-01-18T11:02:28.136Z,1.66
2023-01-18T11:04:59.818Z,1.74
2023-01-18T11:07:27.799Z,1.91
2023-01-18T11:09:59.370Z,1.97
2023-01-18T11:12:43.594Z,2.07
2023-01-18T11:15:13.266Z,2.01
2023-01-18T11:17:42.311Z,2.01
2023-01-18T11:20:48.068Z,1.97
2023-01-18T11:23:35.765Z,2.03
2023-01-18T11:26:06.457Z,2.07
2023-01-18T11:28:55.463Z,2.24
2023-01-18T11:31:24.130Z,2.19
2023-01-18T11:33:56.987Z,2.27
2023-01-18T11:36:39.167Z,2.29
2023-01-18T11:39:19.693Z,2.27
2023-01-18T11:41:46.514Z,2.42
2023-01-18T11:44:25.178Z,2.41
2023-01-18T11:46:55.692Z,2.45
2023-01-18T11:50:21.019Z,2.51
2023-01-18T11:53:00.222Z,2.43
2023-01-18T11:55:41.630Z,2.52
2023-01-18T11:58:21.734Z,2.46
2023-01-18T12:00:59.337Z,2.54
2023-01-18T12:03:54.975Z,2.57
2023-01-18T12:06:33.812Z,2.53
2023-01-18T12:09:12.990Z,2.57
2023-01-18T12:12:17.883Z,2.60
2023-01-18T12:15:19.408Z,2.52
2023-01-18T12:17:58.609Z,2.58
2023-01-18T12:20:43.532Z,2.63
2023-01-18T12:23:22.389Z,2.70
2023-01-18T12:26:10.662Z,2.72
2023-01-18T12:29:20.369Z,2.71
2023-01-18T12:32:06.577Z,2.78
2023-01-18T12:35:12.618Z,2.73
2023-01-18T12:38:24.628Z,2.76
2023-01-18T12:41:28.521Z,2.76
2023-01-18T12:44:10.467Z,2.87
2023-01-18T12:47:06.043Z,2.96
2023-01-18T12:49:41.663Z,2.90
2023-01-18T12:52:19.010Z,2.90
2023-01-18T12:54:50.762Z,3.02
2023-01-18T12:57:19.684Z,2.94
2023-01-18T13:00:06.294Z,2.84
2023-01-18T13:02:39.719Z,2.92
2023-01-18T13:05:33.853Z,2.93
2023-01-18T13:08:21.086Z,2.86
2023-01-18T13:10:48.728Z,2.90
2023-01-18T13:13:22.412Z,2.88
2023-01-18T13:16:02.162Z,2.97
2023-01-18T13:18:56.480Z,3.01
2023-01-18T13:21:43.380Z,3.08
2023-01-18T13:24:29.810Z,3.01
2023-01-18T13:27:12.821Z,3.07
2023-01-18T13:29:41.096Z,3.12
2023-01-18T13:32:24.362Z,2.95
2023-01-18T13:35:19.483Z,3.01
2023-01-18T13:37:56.088Z,2.96
2023-01-18T13:40:39.582Z,3.02
2023-01-18T13:43:26.612Z,3.03
2023-01-18T13:46:04.153Z,3.03
2023-01-18T13:48:50.959Z,3.00
2023-01-18T13:51:36.529Z,3.00
2023-01-18T13:54:04.777Z,2.94
2023-01-18T13:56:33.353Z,2.89
2023-01-18T13:59:18.443Z,2.94
2023-01-18T14:01:48.949Z,2.92
2023-01-18T14:04:32.772Z,2.84
2023-01-18T14:07:03.704Z,2.87
2023-01-18T14:09:46.427Z,3.00
2023-01-18T14:12:14.705Z,2.92
2023-01-18T14:15:01.064Z,2.90
2023-01-18T14:17:30.817Z,2.91
2023-01-18T14:20:33.902Z,2.92
2023-01-18T14:23:24.376Z,2.84
2023-01-18T14:25:57.518Z,2.76
2023-01-18T14:28:37.783Z,2.96
2023-01-18T14:31:07.225Z,2.86
2023-01-18T14:33:37.512Z,2.83
2023-01-18T14:36:06.667Z,2.80
2023-01-18T14:38:33.348Z,2.76
2023-01-18T14:41:05.239Z,2.71
2023-01-18T14:43:37.117Z,2.71
2023-01-18T14:46:07.406Z,2.57
2023-01-18T14:48:43.048Z,2.51
2023-01-18T14:51:09.914Z,2.50
2023-01-18T14:53:46.361Z,2.48
2023-01-18T14:56:22.376Z,2.66
2023-01-18T14:59:00.439Z,2.53
2023-01-18T15:01:33.380Z,2.44
2023-01-18T15:04:21.167Z,2.40
2023-01-18T15:07:10.592Z,2.45
2023-01-18T15:09:39.753Z,2.38
2023-01-18T15:12:10.798Z,2.32
2023-01-18T15:14:43.919Z,2.24
2023-01-18T15:17:21.482Z,2.13
2023-01-18T15:20:02.691Z,1.98
2023-01-18T15:22:33.014Z,1.87
2023-01-18T15:25:01.374Z,1.88
2023-01-18T15:27:32.445Z,1.86
2023-01-18T15:30:01.211Z,1.78
2023-01-18T15:32:34.015Z,1.72
2023-01-18T15:35:02.995Z,1.69
2023-01-18T15:37:40.020Z,1.64
2023-01-18T15:40:12.824Z,1.79
2023-01-18T15:42:45.285Z,1.58
2023-01-18T15:45:24.427Z,1.61
2023-01-18T15:48:00.798Z,1.52
2023-01-18T15:50:43.145Z,1.40
2023-01-18T15:53:18.167Z,1.33
2023-01-18T15:55:58.502Z,1.33
2023-01-18T15:58:40.442Z,1.26
2023-01-18T16:01:16.448Z,1.29
2023-01-18T16:03:46.161Z,1.32
2023-01-18T16:06:22.796Z,1.33
2023-01-18T16:09:13.306Z,1.35
2023-01-18T16:11:54.472Z,1.33
2023-01-18T16:14:38.387Z,1.50
2023-01-18T16:17:11.249Z,1.37
2023-01-18T16:19:49.007Z,1.37
2023-01-18T16:22:28.174Z,1.24
2023-01-18T16:25:06.961Z,1.30
2023-01-18T16:27:34.281Z,1.30
2023-01-18T16:30:17.534Z,1.35
2023-01-18T16:32:44.379Z,1.36
2023-01-18T16:35:19.979Z,1.34
2023-01-18T16:37:47.688Z,1.31
2023-01-18T16:40:23.120Z,1.28
2023-01-18T16:43:01.219Z,1.23
2023-01-18T16:45:29.845Z,1.37
2023-01-18T16:47:57.342Z,1.29
2023-01-18T16:50:24.296Z,1.31
2023-01-18T16:52:51.034Z,1.25
2023-01-18T16:55:18.238Z,1.20
2023-01-18T16:57:45.440Z,1.34
2023-01-18T17:00:22.777Z,1.29
2023-01-18T17:02:50.055Z,1.19
2023-01-18T17:05:17.700Z,1.24
2023-01-18T17:07:45.386Z,1.16
2023-01-18T17:10:38.050Z,1.11
2023-01-18T17:13:04.991Z,1.09
2023-01-18T17:15:34.540Z,1.12
2023-01-18T17:18:02.311Z,1.06
2023-01-18T17:20:30.308Z,0.93
2023-01-18T17:22:57.573Z,0.95
2023-01-18T17:25:24.639Z,1.10
2023-01-18T17:27:51.970Z,1.01
2023-01-18T17:30:21.333Z,1.01
2023-01-18T17:32:48.520Z,0.97
2023-01-18T17:35:16.743Z,0.95
2023-01-18T17:37:43.535Z,0.84
2023-01-18T17:40:17.046Z,0.93
2023-01-18T17:42:49.939Z,1.00
2023-01-18T17:45:17.644Z,0.97
2023-01-18T17:47:44.594Z,0.96
2023-01-18T17:50:15.570Z,0.94
2023-01-18T17:52:42.226Z,1.00
2023-01-18T17:55:13.565Z,1.02
2023-01-18T17:57:41.142Z,0.94
2023-01-18T18:00:11.752Z,0.92
2023-01-18T18:02:38.467Z,0.99
2023-01-18T18:05:05.867Z,0.85
2023-01-18T18:07:33.198Z,0.87
2023-01-18T18:10:01.534Z,0.87
2023-01-18T18:12:33.135Z,0.95
2023-01-18T18:15:00.157Z,0.87
2023-01-18T18:17:29.501Z,0.87
2023-01-18T18:19:56.666Z,0.88
2023-01-18T18:22:23.827Z,0.85
2023-01-18T18:24:52.241Z,0.91
2023-01-18T18:27:19.546Z,0.90
2023-01-18T18:29:47.828Z,0.80
2023-01-18T18:32:15.377Z,0.80
2023-01-18T18:34:42.169Z,0.72
2023-01-18T18:37:09.051Z,0.73
2023-01-18T18:39:42.794Z,0.67
2023-01-18T18:42:09.905Z,0.71
2023-01-18T18:44:42.536Z,0.79
2023-01-18T18:47:10.598Z,0.73
2023-01-18T18:49:43.274Z,0.68
2023-01-18T18:52:10.057Z,0.78
2023-01-18T18:54:36.802Z,0.71
2023-01-18T18:57:03.596Z,0.70
2023-01-18T18:59:31.082Z,0.70
2023-01-18T19:01:57.879Z,0.57
2023-01-18T19:04:26.350Z,0.73
2023-01-18T19:06:53.952Z,0.79
2023-01-18T19:09:25.388Z,0.72
2023-01-18T19:11:55.315Z,0.76
2023-01-18T19:14:25.775Z,0.72
2023-01-18T19:16:55.464Z,0.64
2023-01-18T19:19:22.231Z,0.77
2023-01-18T19:21:50.153Z,0.80
2023-01-18T19:27:51.609Z,0.70
2023-01-18T19:30:21.710Z,0.68
2023-01-18T19:32:50.904Z,0.62
2023-01-18T19:35:19.086Z,0.71
2023-01-18T19:37:47.658Z,0.54
2023-01-18T19:40:15.960Z,0.80
2023-01-18T19:42:46.098Z,0.65
2023-01-18T19:45:19.679Z,0.63
2023-01-18T19:47:55.613Z,0.57
2023-01-18T19:50:23.270Z,0.62
2023-01-18T19:52:50.572Z,0.70
2023-01-18T19:55:17.335Z,0.63
2023-01-18T19:57:44.078Z,0.58
2023-01-18T20:00:11.581Z,0.52
2023-01-18T20:02:39.150Z,0.57
2023-01-18T20:05:07.366Z,0.68
2023-01-18T20:07:34.128Z,0.66
2023-01-18T20:10:01.206Z,0.71
2023-01-18T20:12:31.305Z,0.65
2023-01-18T20:14:58.491Z,0.66
2023-01-18T20:17:26.513Z,0.71
2023-01-18T20:19:54.281Z,0.63
2023-01-18T20:22:22.125Z,0.70
2023-01-18T20:24:49.148Z,0.66
2023-01-18T20:27:17.219Z,0.64
2023-01-18T20:29:45.020Z,0.68
2023-01-18T20:32:19.285Z,0.82
2023-01-18T20:34:47.038Z,0.66
2023-01-18T20:37:15.859Z,0.65
2023-01-18T20:39:42.831Z,0.59
2023-01-18T20:42:09.839Z,0.75
2023-01-18T20:44:36.772Z,0.84
2023-01-18T20:47:05.564Z,1.01
2023-01-18T20:49:38.420Z,0.96
2023-01-18T20:52:08.991Z,0.85
2023-01-18T20:54:36.666Z,0.82
2023-01-18T20:57:07.204Z,0.92
2023-01-18T20:59:35.256Z,0.90
2023-01-18T21:02:03.154Z,0.89
2023-01-18T21:04:30.996Z,0.93
2023-01-18T21:06:58.300Z,0.99
2023-01-18T21:09:25.601Z,1.00
2023-01-18T21:11:52.364Z,0.96
2023-01-18T21:14:19.218Z,0.83
2023-01-18T21:16:46.533Z,0.91
2023-01-18T21:19:14.202Z,0.92
2023-01-18T21:21:40.984Z,1.06
2023-01-18T21:24:08.024Z,1.02
2023-01-18T21:26:36.134Z,0.96
2023-01-18T21:29:02.861Z,0.91
2023-01-18T21:31:29.657Z,0.97
2023-01-18T21:33:56.507Z,1.09
2023-01-18T21:36:23.302Z,1.16
2023-01-18T21:38:52.999Z,0.99
2023-01-18T21:41:38.216Z,1.09
2023-01-18T21:44:23.153Z,1.11
2023-01-18T21:46:52.104Z,1.14
2023-01-18T21:50:11.231Z,1.19
2023-01-18T21:52:48.078Z,1.19
2023-01-18T21:55:16.340Z,1.15
2023-01-18T21:57:43.241Z,1.08
2023-01-18T22:00:10.762Z,1.07
2023-01-18T22:02:39.633Z,1.18
2023-01-18T22:05:08.590Z,1.19
2023-01-18T22:07:35.786Z,1.24
2023-01-18T22:10:06.655Z,1.26
2023-01-18T22:12:35.819Z,1.28
2023-01-18T22:15:04.393Z,1.27
2023-01-18T22:17:31.447Z,1.24
2023-01-18T22:19:58.702Z,1.25
2023-01-18T22:22:26.146Z,1.28
2023-01-18T22:24:56.580Z,1.35
2023-01-18T22:27:23.298Z,1.26
2023-01-18T22:29:50.068Z,1.24
2023-01-18T22:32:17.028Z,1.30
2023-01-18T22:34:43.777Z,1.27
2023-01-18T22:37:10.480Z,1.25
2023-01-18T22:39:37.580Z,1.33
2023-01-18T22:42:04.529Z,1.25
2023-01-18T22:44:32.825Z,1.20
2023-01-18T22:46:59.535Z,1.28
2023-01-18T22:49:26.258Z,1.30
2023-01-18T22:51:52.941Z,1.27
2023-01-18T22:54:22.518Z,1.26
2023-01-18T22:56:49.406Z,1.30
2023-01-18T22:59:16.261Z,1.26
2023-01-18T23:01:43.322Z,1.34
2023-01-18T23:04:10.353Z,1.25
2023-01-18T23:06:46.603Z,1.23
2023-01-18T23:09:15.217Z,1.18
2023-01-18T23:11:42.214Z,1.31
2023-01-18T23:14:27.308Z,1.30
2023-01-18T23:17:12.767Z,1.33
2023-01-18T23:19:39.445Z,1.33
2023-01-18T23:22:07.456Z,1.38
2023-01-18T23:24:35.659Z,1.36
2023-01-18T23:27:03.572Z,1.38
2023-01-18T23:29:30.801Z,1.36
2023-01-18T23:31:58.302Z,1.43
2023-01-18T23:34:25.465Z,1.42
2023-01-18T23:36:54.272Z,1.49
2023-01-18T23:39:41.464Z,1.50
2023-01-18T23:42:27.258Z,1.58
2023-01-18T23:45:12.288Z,1.59
2023-01-18T23:47:59.380Z,1.62
2023-01-18T23:50:44.814Z,1.61
2023-01-18T23:53:31.496Z,1.67
2023-01-18T23:55:58.759Z,1.64
2023-01-18T23:58:25.825Z,1.61
